Vernal, UT

11:21 AM MDT on July 23, 2014 (GMT -0600)
Vernal (KVEL) Elev 5276 ft | 40.44 °N, 109.51 °W | Change Station

Current weather conditions updated 28 minutes ago

Clear
Clear
83 °F
Feels Like 83 °F
N
5
Wind Variable Wind from SSW

Today is forecast to be nearly the same temperature as yesterday.

Today
High -- | Low -- °F
--% Chance of Precip.
Yesterday
High -- | Low -- °F
Precip. -- in
6:07 AM 8:41 PM
Waning Crescent, 9% visible
Pressure 30.06 in
Visibility 10.0 miles
Clouds Clear
Dew Point 32 °F
Humidity 16%
Rainfall 0.00 in
Snow Depth 0 in
UV 9 out of 12
Pollen 5.80 out of 12
Air Quality Not available.
Flu Activity Not available.
METAR KVEL 231653Z AUTO 21004KT 10SM CLR 28/00 A3027 RMK AO2 SLP177 T02830000

More Conditions Fewer Conditions

Pressure 30.06 in
Visibility 10.0 miles
Clouds Clear
Dew Point 32 °F
Humidity 16%
Rainfall 0.00 in
Snow Depth 0 in
UV 9 out of 12
Pollen 5.80 out of 12
Air Quality Not available.
Flu Activity Not available.
METAR KVEL 231653Z AUTO 21004KT 10SM CLR 28/00 A3027 RMK AO2 SLP177 T02830000

More Conditions Fewer Conditions

10-Day Weather Forecast

Almanac

Astronomy

Jul. 23, 2014 Rise Set
Actual Time 6:07 AM MDT 8:41 PM MDT
Civil Twilight 5:35 AM MDT 9:12 PM MDT
Nautical Twilight 4:56 AM MDT 9:51 PM MDT
Astronomical Twilight 4:12 AM MDT 10:35 PM MDT
Moon 3:28 AM MDT 6:12 PM MDT
Length of Visible Light 15h 36m
Length of Day
14h 34m
Tomorrow will be 1m 44s shorter.
Waning Crescent, 9% of the Moon is Illuminated
Today
Waning Crescent
Jul 26
New
Aug 3
First Quarter
Aug 10
Full
Aug 17
Last Quarter

Today's Extremes

State Highs State Lows

Community

WunderPhotos

Upload Photos

1,736,678 photos uploaded!

Nearby

Snow Depth

Station Depth Elevation
King's Cabin 0 in 8730 ft
Trout Creek 1 in 9400 ft
Mosby Mountain 0 in 9500 ft
Hole-In-Rock 0 in 9150 ft
Lakefork #1 0 in 10100 ft

Earthquake Activity

City Distance Mag. Time & Date
No recent earthquake activity has been reported nearby.
Minimum magnitude displayed is 2.5.

Coastal Water Temperatures

Place Temperature
No Stations Reporting

Nearby Weather Stations

Station Location Temp. Heat Index Dew Point Humidity Wind Precip. Elev Updated Type
Maeser, Vernal, UT 84.4 °F 81 °F 35 °F 17% South  at  1.0 mph 0.00 in / hr 5469 ft 11:20 AM MDT Normal
RAWS FORT DUCHESNE UT, Fort Duchesne, UT 82 °F 80 °F 37 °F 20% North  at  0 mph 0.00 in / hr 4928 ft 10:31 AM MDT MADIS
HADS WHITEROCKS 9N UT, Whiterocks, UT 83 °F 81 °F - - North  at  - 0.00 in / hr 7360 ft 10:00 AM MDT MADIS

Show More Stations Show Fewer Stations